Terminal Aerodrome Forecast
Issued by NWS

Home | Current Version | Previous Version | Text Only | Print | Product List | Glossary On
Versions: 1 2 3 4 5 6 7 8 9 10 11 12 13 14 15 16
000
FTAK31 PAJN 261100
TAFAPG
TAF
PAPG 261125Z 2612/2712 00000KT P6SM VCFG SCT005 BKN040
      TEMPO 2612/2616 5SM BR FEW005 BKN015
     FM261900 05005KT P6SM SCT040 BKN100
     FM270300 30004KT P6SM VCFG SCT040 BKN100
      AMD LTD TO CLD VIS AND WIND 2612/2615=

USA.gov is the U.S. government's official web portal to all federal, state and local government web resources and services.